createdAt,value
2019-03-20T00:00:36.184Z,4.40
2019-03-20T00:03:15.869Z,8.60
2019-03-20T00:05:33.422Z,9.00
2019-03-20T00:11:25.016Z,6.40
2019-03-20T00:13:52.931Z,8.60
2019-03-20T00:16:39.336Z,7.00
2019-03-20T00:19:25.821Z,7.00
2019-03-20T00:22:12.479Z,5.80
2019-03-20T00:24:58.908Z,6.40
2019-03-20T00:27:26.819Z,8.00
2019-03-20T00:30:13.260Z,6.60
2019-03-20T00:32:59.909Z,6.00
2019-03-20T00:35:46.392Z,9.40
2019-03-20T00:38:33.083Z,4.80
2019-03-20T00:41:19.581Z,5.60
2019-03-20T00:43:47.182Z,9.80
2019-03-20T00:46:33.626Z,4.40
2019-03-20T00:54:07.334Z,7.60
2019-03-20T00:56:54.019Z,8.20
2019-03-20T00:59:40.478Z,7.60
2019-03-20T01:02:08.607Z,9.20
2019-03-20T01:04:38.016Z,6.20
2019-03-20T01:07:24.463Z,6.40
2019-03-20T01:10:10.922Z,6.00
2019-03-20T01:12:57.309Z,5.20
2019-03-20T01:15:43.745Z,8.80
2019-03-20T01:21:03.772Z,8.60
2019-03-20T01:24:02.128Z,9.80
2019-03-20T01:34:25.836Z,8.60
2019-03-20T01:36:53.587Z,9.80
2019-03-20T01:39:40.038Z,9.00
2019-03-20T01:44:59.002Z,9.00
2019-03-20T01:47:45.420Z,7.80
2019-03-20T01:50:32.166Z,6.60
2019-03-20T01:53:18.537Z,9.20
2019-03-20T01:56:05.256Z,8.20
2019-03-20T01:58:32.920Z,8.60
2019-03-20T02:03:52.699Z,9.00
2019-03-20T02:06:39.127Z,6.00
2019-03-20T02:09:25.843Z,3.20
2019-03-20T02:11:53.630Z,10.60
2019-03-20T02:14:21.406Z,6.80
2019-03-20T02:17:08.101Z,9.80
2019-03-20T02:22:28.337Z,7.00
2019-03-20T02:24:56.076Z,8.20
2019-03-20T02:30:15.927Z,6.60
2019-03-20T02:35:51.768Z,7.80
2019-03-20T02:38:36.993Z,8.20
2019-03-20T02:41:04.742Z,6.40
2019-03-20T02:43:51.183Z,9.60
2019-03-20T02:46:18.926Z,6.80
2019-03-20T02:49:05.332Z,6.40
2019-03-20T02:51:33.056Z,6.40
2019-03-20T02:54:19.770Z,9.80
2019-03-20T02:57:06.173Z,9.80
2019-03-20T02:59:52.925Z,9.60
2019-03-20T03:04:55.723Z,6.20
2019-03-20T03:07:42.434Z,8.60
2019-03-20T03:10:29.611Z,5.60
2019-03-20T03:15:58.023Z,7.40
2019-03-20T03:18:34.090Z,8.60
2019-03-20T03:24:09.040Z,8.20
2019-03-20T03:26:48.502Z,10.00
2019-03-20T03:29:25.290Z,4.80
2019-03-20T03:34:41.197Z,9.40
2019-03-20T03:40:02.775Z,7.80
2019-03-20T03:45:40.545Z,7.80
2019-03-20T03:48:27.009Z,6.80
2019-03-20T03:51:13.671Z,7.40
2019-03-20T03:56:33.840Z,8.60
2019-03-20T03:59:21.797Z,7.00
2019-03-20T04:02:08.233Z,8.60
2019-03-20T04:07:41.437Z,4.80
2019-03-20T04:13:14.616Z,6.40
2019-03-20T04:16:13.151Z,10.40
2019-03-20T04:21:23.166Z,9.40
2019-03-20T04:24:09.993Z,5.20
2019-03-20T04:29:29.418Z,6.40
2019-03-20T04:34:44.138Z,7.00
2019-03-20T04:37:30.515Z,5.20
2019-03-20T04:40:17.263Z,7.40
2019-03-20T04:43:03.712Z,12.40
2019-03-20T04:45:50.366Z,9.00
2019-03-20T04:48:36.806Z,8.60
2019-03-20T04:51:04.629Z,0.00
2019-03-20T04:53:51.071Z,6.40
2019-03-20T04:56:37.456Z,6.60
2019-03-20T04:59:23.944Z,4.00
2019-03-20T05:04:57.142Z,10.80
2019-03-20T05:07:43.523Z,6.00
2019-03-20T05:10:29.957Z,6.60
2019-03-20T05:16:02.848Z,8.20
2019-03-20T05:18:30.714Z,9.00
2019-03-20T05:21:17.467Z,13.40
2019-03-20T05:26:50.314Z,10.00
2019-03-20T05:29:18.103Z,9.80
2019-03-20T05:34:49.777Z,7.40
2019-03-20T05:37:25.969Z,9.40
2019-03-20T05:42:45.915Z,8.40
2019-03-20T05:45:13.797Z,6.00
2019-03-20T05:48:00.208Z,7.80
2019-03-20T05:53:19.373Z,6.40
2019-03-20T05:58:52.309Z,11.60
2019-03-20T06:06:49.835Z,5.20
2019-03-20T06:09:26.023Z,9.00
2019-03-20T06:11:53.923Z,10.00
2019-03-20T06:17:28.585Z,10.00
2019-03-20T06:20:15.023Z,10.80
2019-03-20T06:23:01.569Z,9.60
2019-03-20T06:25:48.087Z,7.80
2019-03-20T06:28:15.818Z,8.60
2019-03-20T06:31:02.274Z,12.00
2019-03-20T06:33:30.508Z,10.40
2019-03-20T06:35:58.481Z,9.40
2019-03-20T06:38:44.828Z,10.40
2019-03-20T06:41:12.741Z,10.80
2019-03-20T06:43:59.140Z,9.20
2019-03-20T06:46:45.611Z,7.80
2019-03-20T06:49:44.339Z,12.20
2019-03-20T06:52:01.573Z,14.60
2019-03-20T06:54:48.028Z,17.80
2019-03-20T06:57:17.659Z,12.40
2019-03-20T07:05:05.454Z,10.40
2019-03-20T07:13:31.051Z,9.60
2019-03-20T07:16:19.385Z,5.60
2019-03-20T07:19:06.236Z,11.20
2019-03-20T07:24:39.196Z,6.80
2019-03-20T07:30:12.103Z,4.00
2019-03-20T07:32:39.799Z,9.80
2019-03-20T07:35:26.267Z,8.60
2019-03-20T07:38:12.709Z,5.60
2019-03-20T07:41:11.329Z,5.60
2019-03-20T07:43:47.203Z,12.20
2019-03-20T07:46:33.668Z,13.60
2019-03-20T07:49:01.539Z,9.80
2019-03-20T07:51:32.295Z,10.00
2019-03-20T07:54:00.037Z,4.80
2019-03-20T07:56:27.717Z,11.00
2019-03-20T07:59:00.397Z,6.80
2019-03-20T08:01:28.050Z,5.20
2019-03-20T08:03:55.783Z,2.60
2019-03-20T08:06:23.828Z,6.00
2019-03-20T08:08:51.559Z,9.00
2019-03-20T08:11:19.204Z,6.00
2019-03-20T08:13:47.443Z,8.00
2019-03-20T08:16:15.173Z,13.40
2019-03-20T08:18:42.892Z,15.40
2019-03-20T08:21:10.987Z,16.60
2019-03-20T08:23:38.745Z,12.60
2019-03-20T08:26:06.451Z,16.80
2019-03-20T08:28:34.606Z,16.00
2019-03-20T08:31:03.429Z,16.80
2019-03-20T08:33:31.154Z,12.60
2019-03-20T08:35:59.231Z,10.80
2019-03-20T08:38:26.895Z,13.00
2019-03-20T08:40:54.643Z,6.40
2019-03-20T08:43:22.870Z,6.00
2019-03-20T08:45:50.559Z,4.80
2019-03-20T08:48:20.109Z,4.00
2019-03-20T08:50:52.377Z,4.40
2019-03-20T08:53:20.351Z,6.00
2019-03-20T08:55:48.149Z,6.00
2019-03-20T08:58:17.502Z,6.20
2019-03-20T09:00:45.188Z,6.00
2019-03-20T09:03:12.948Z,3.00
2019-03-20T09:05:43.455Z,1.40
2019-03-20T09:08:11.128Z,5.20
2019-03-20T09:10:41.663Z,3.80
2019-03-20T09:13:14.038Z,6.00
2019-03-20T09:15:41.777Z,4.00
2019-03-20T09:18:09.471Z,4.00
2019-03-20T09:20:37.980Z,3.80
2019-03-20T09:23:05.763Z,5.60
2019-03-20T09:25:35.414Z,5.50
2019-03-20T09:28:05.809Z,3.00
2019-03-20T09:30:33.477Z,7.00
2019-03-20T09:33:01.226Z,4.00
2019-03-20T09:35:30.534Z,6.00
2019-03-20T09:37:59.286Z,4.00
2019-03-20T09:40:26.962Z,6.00
2019-03-20T09:42:58.110Z,5.60
2019-03-20T09:45:25.810Z,6.00
2019-03-20T09:47:53.479Z,4.00
2019-03-20T09:50:21.661Z,5.60
2019-03-20T09:52:50.147Z,3.00
2019-03-20T09:55:20.685Z,8.80
2019-03-20T09:57:48.733Z,6.75
2019-03-20T10:00:16.435Z,6.20
2019-03-20T10:02:46.950Z,6.00
2019-03-20T10:05:14.973Z,4.20
2019-03-20T10:07:42.691Z,5.20
2019-03-20T10:10:11.538Z,5.60
2019-03-20T10:12:39.611Z,7.00
2019-03-20T10:15:08.524Z,4.80
2019-03-20T10:17:39.454Z,7.00
2019-03-20T10:20:07.598Z,6.60
2019-03-20T10:22:38.902Z,6.40
2019-03-20T10:25:06.590Z,9.00
2019-03-20T10:27:34.644Z,6.80
2019-03-20T10:30:02.377Z,3.80
2019-03-20T10:32:33.118Z,7.00
2019-03-20T10:35:01.243Z,6.00
2019-03-20T10:37:29.099Z,5.60
2019-03-20T10:39:56.803Z,7.20
2019-03-20T10:42:30.005Z,3.00
2019-03-20T10:45:00.692Z,3.20
2019-03-20T10:47:29.011Z,3.20
2019-03-20T10:49:56.671Z,8.20
2019-03-20T10:52:24.367Z,6.00
2019-03-20T10:54:52.412Z,9.40
2019-03-20T10:57:20.146Z,9.00
2019-03-20T10:59:48.995Z,9.00
2019-03-20T11:02:17.036Z,6.40
2019-03-20T11:04:44.682Z,8.20
2019-03-20T11:07:12.379Z,9.00
2019-03-20T11:09:40.389Z,10.20
2019-03-20T11:12:18.285Z,7.40
2019-03-20T11:14:47.333Z,12.60
2019-03-20T11:17:21.795Z,10.80
2019-03-20T11:19:49.567Z,8.60
2019-03-20T11:22:19.324Z,8.60
2019-03-20T11:24:47.870Z,8.60
2019-03-20T11:27:16.043Z,9.60
2019-03-20T11:29:43.997Z,12.00
2019-03-20T11:32:14.278Z,6.60
2019-03-20T11:34:43.121Z,7.40
2019-03-20T11:37:10.905Z,7.80
2019-03-20T11:39:40.351Z,8.60
2019-03-20T11:42:08.273Z,6.80
2019-03-20T11:44:36.870Z,5.20
2019-03-20T11:47:09.199Z,6.00
2019-03-20T11:49:39.172Z,4.00
2019-03-20T11:52:07.271Z,3.80
2019-03-20T11:54:37.135Z,6.20
2019-03-20T11:57:06.552Z,4.80
2019-03-20T11:59:37.328Z,3.40
2019-03-20T12:02:12.348Z,12.00
2019-03-20T12:04:39.969Z,7.00
2019-03-20T12:07:07.735Z,7.00
2019-03-20T12:09:41.097Z,3.20
2019-03-20T12:12:05.329Z,6.80
2019-03-20T12:14:32.940Z,7.40
2019-03-20T12:17:02.854Z,6.60
2019-03-20T12:19:44.449Z,3.40
2019-03-20T12:22:03.954Z,7.00
2019-03-20T12:24:32.087Z,7.00
2019-03-20T12:26:59.840Z,4.40
2019-03-20T12:29:27.554Z,4.00
2019-03-20T12:31:55.724Z,3.00
2019-03-20T12:34:25.134Z,3.00
2019-03-20T12:36:52.820Z,4.00
2019-03-20T12:39:32.866Z,4.40
2019-03-20T12:42:02.240Z,4.00
2019-03-20T12:44:30.426Z,4.00
2019-03-20T12:46:59.947Z,6.00
2019-03-20T12:49:27.577Z,3.20
2019-03-20T12:51:58.192Z,3.00
2019-03-20T12:54:25.933Z,3.60
2019-03-20T12:56:53.630Z,3.00
2019-03-20T12:59:24.140Z,4.00
2019-03-20T13:01:53.238Z,3.00
2019-03-20T13:04:28.010Z,1.00
2019-03-20T13:06:56.207Z,4.00
2019-03-20T13:09:23.856Z,3.00
2019-03-20T13:11:53.796Z,3.80
2019-03-20T13:14:23.884Z,4.00
2019-03-20T13:16:51.473Z,3.00
2019-03-20T13:19:19.241Z,4.00
2019-03-20T13:21:47.702Z,3.00
2019-03-20T13:24:16.475Z,1.40
2019-03-20T13:26:45.575Z,3.20
2019-03-20T13:29:16.339Z,1.80
2019-03-20T13:31:44.073Z,3.00
2019-03-20T13:34:19.239Z,1.00
2019-03-20T13:36:54.443Z,2.80
2019-03-20T13:39:23.466Z,1.00
2019-03-20T13:41:51.577Z,3.00
2019-03-20T13:44:19.790Z,3.00
2019-03-20T13:46:49.147Z,3.20
2019-03-20T13:49:17.245Z,0.80
2019-03-20T13:51:44.912Z,1.00
2019-03-20T13:54:15.079Z,3.00
2019-03-20T13:56:43.190Z,3.40
2019-03-20T13:59:10.962Z,2.20
2019-03-20T14:01:38.633Z,1.00
2019-03-20T14:04:06.827Z,1.80
2019-03-20T14:06:34.531Z,2.60
2019-03-20T14:09:03.109Z,3.00
2019-03-20T14:11:31.195Z,1.00
2019-03-20T14:13:58.919Z,3.00
2019-03-20T14:16:29.170Z,3.00
2019-03-20T14:18:57.254Z,3.00
2019-03-20T14:21:27.180Z,0.00
2019-03-20T14:23:55.552Z,1.00
2019-03-20T14:26:23.696Z,1.00
2019-03-20T14:28:51.430Z,0.40
2019-03-20T14:31:23.809Z,1.80
2019-03-20T14:33:51.849Z,1.40
2019-03-20T14:36:19.579Z,1.00
2019-03-20T14:38:47.255Z,1.80
2019-03-20T14:41:46.071Z,3.00
2019-03-20T14:44:22.005Z,3.00
2019-03-20T14:47:08.438Z,0.80
2019-03-20T14:52:29.445Z,1.00
2019-03-20T14:54:57.257Z,2.60
2019-03-20T14:57:43.731Z,1.40
2019-03-20T15:00:11.435Z,4.40
2019-03-20T15:02:57.919Z,1.00
2019-03-20T15:08:30.899Z,2.60
2019-03-20T15:11:10.442Z,1.00
2019-03-20T15:13:48.635Z,3.20
2019-03-20T15:16:35.053Z,3.40
2019-03-20T15:19:21.482Z,3.00
2019-03-20T15:21:49.086Z,2.60
2019-03-20T15:24:37.797Z,1.00
2019-03-20T15:27:08.391Z,3.00
2019-03-20T15:29:36.156Z,1.00
2019-03-20T15:32:03.837Z,3.00
2019-03-20T15:34:35.771Z,3.00
2019-03-20T15:37:03.885Z,2.20
2019-03-20T15:39:31.632Z,1.00
2019-03-20T15:41:59.413Z,1.00
2019-03-20T15:44:27.505Z,1.00
2019-03-20T15:46:55.228Z,3.00
2019-03-20T15:49:22.944Z,3.00
2019-03-20T15:51:51.108Z,3.20
2019-03-20T15:54:18.837Z,1.00
2019-03-20T15:56:46.517Z,2.60
2019-03-20T15:59:17.430Z,3.20
2019-03-20T16:01:46.232Z,3.00
2019-03-20T16:04:13.974Z,3.40
2019-03-20T16:06:42.377Z,3.40
2019-03-20T16:09:12.589Z,3.60
2019-03-20T16:11:40.332Z,3.00
2019-03-20T16:14:10.891Z,3.00
2019-03-20T16:16:38.668Z,5.60
2019-03-20T16:19:06.370Z,4.00
2019-03-20T16:21:35.442Z,4.00
2019-03-20T16:24:03.232Z,4.40
2019-03-20T16:26:30.967Z,5.60
2019-03-20T16:28:58.888Z,6.20
2019-03-20T16:31:26.627Z,3.60
2019-03-20T16:33:56.546Z,3.00
2019-03-20T16:36:26.929Z,3.00
2019-03-20T16:38:54.553Z,4.40
2019-03-20T16:41:24.131Z,3.80
2019-03-20T16:43:52.268Z,5.20
2019-03-20T16:46:30.567Z,3.80
2019-03-20T16:48:58.281Z,2.20
2019-03-20T16:51:26.385Z,5.20
2019-03-20T16:53:55.253Z,1.00
2019-03-20T16:56:25.805Z,4.80
2019-03-20T16:58:55.994Z,4.00
2019-03-20T17:01:23.654Z,3.00
2019-03-20T17:03:52.985Z,3.80
2019-03-20T17:06:26.829Z,7.00
2019-03-20T17:08:59.266Z,3.40
2019-03-20T17:11:37.937Z,6.00
2019-03-20T17:13:56.676Z,4.00
2019-03-20T17:16:30.835Z,4.80
2019-03-20T17:19:08.476Z,4.80
2019-03-20T17:21:36.171Z,5.60
2019-03-20T17:24:03.857Z,6.00
2019-03-20T17:26:31.632Z,3.00
2019-03-20T17:29:08.700Z,5.60
2019-03-20T17:31:29.110Z,4.00
2019-03-20T17:33:59.367Z,7.40
2019-03-20T17:36:45.924Z,2.20
2019-03-20T17:39:15.298Z,4.00
2019-03-20T17:41:43.978Z,6.00
2019-03-20T17:44:11.710Z,4.00
2019-03-20T17:46:39.760Z,6.00
2019-03-20T17:49:18.085Z,6.00
2019-03-20T17:51:45.500Z,6.00
2019-03-20T17:54:13.625Z,7.00
2019-03-20T17:56:41.361Z,4.00
2019-03-20T17:59:11.000Z,4.00
2019-03-20T18:01:41.485Z,3.00
2019-03-20T18:04:12.027Z,3.60
2019-03-20T18:06:39.708Z,6.80
2019-03-20T18:09:10.901Z,4.40
2019-03-20T18:11:47.115Z,6.20
2019-03-20T18:14:16.611Z,0.20
2019-03-20T18:16:44.703Z,0.00
2019-03-20T18:19:14.221Z,6.00
2019-03-20T18:21:47.073Z,4.00
2019-03-20T18:24:15.546Z,7.00
2019-03-20T18:26:44.882Z,6.20
2019-03-20T18:29:12.559Z,8.20
2019-03-20T18:31:46.007Z,9.80
2019-03-20T18:34:12.559Z,4.80
2019-03-20T18:36:40.294Z,8.40
2019-03-20T18:39:09.614Z,10.00
2019-03-20T18:41:39.039Z,9.00
2019-03-20T18:44:06.793Z,9.00
2019-03-20T18:46:48.141Z,7.00
2019-03-20T18:49:15.912Z,6.00
2019-03-20T18:51:47.854Z,6.00
2019-03-20T18:54:19.495Z,7.00
2019-03-20T18:56:50.785Z,4.80
2019-03-20T18:59:21.864Z,6.00
2019-03-20T19:01:53.086Z,5.20
2019-03-20T19:04:20.755Z,6.00
2019-03-20T19:06:50.110Z,9.20
2019-03-20T19:09:17.850Z,6.60
2019-03-20T19:11:45.577Z,8.20
2019-03-20T19:14:15.904Z,7.40
2019-03-20T19:16:43.596Z,9.80
2019-03-20T19:19:12.859Z,7.40
2019-03-20T19:21:43.521Z,6.60
2019-03-20T19:24:11.183Z,8.20
2019-03-20T19:26:41.956Z,9.20
2019-03-20T19:29:10.430Z,6.40
2019-03-20T19:31:43.955Z,6.80
2019-03-20T19:34:11.662Z,6.60
2019-03-20T19:36:39.778Z,7.00
2019-03-20T19:39:09.207Z,6.60
2019-03-20T19:41:38.088Z,5.20
2019-03-20T19:44:11.452Z,4.80
2019-03-20T19:46:41.941Z,9.60
2019-03-20T19:49:09.914Z,6.00
2019-03-20T19:51:39.426Z,6.00
2019-03-20T19:54:10.271Z,6.20
2019-03-20T19:56:38.464Z,4.40
2019-03-20T19:59:06.232Z,6.40
2019-03-20T20:01:40.494Z,4.20
2019-03-20T20:04:08.618Z,11.20
2019-03-20T20:06:36.779Z,9.60
2019-03-20T20:09:06.133Z,9.00
2019-03-20T20:11:37.214Z,9.40
2019-03-20T20:14:06.833Z,10.00
2019-03-20T20:16:39.686Z,10.00
2019-03-20T20:19:07.765Z,9.60
2019-03-20T20:21:35.501Z,6.00
2019-03-20T20:24:03.208Z,7.40
2019-03-20T20:26:31.300Z,7.00
2019-03-20T20:29:00.840Z,7.40
2019-03-20T20:31:28.568Z,6.00
2019-03-20T20:34:00.503Z,9.40
2019-03-20T20:36:30.882Z,7.40
2019-03-20T20:38:58.632Z,6.60
2019-03-20T20:41:29.141Z,8.60
2019-03-20T20:43:58.612Z,7.80
2019-03-20T20:46:29.907Z,9.00
2019-03-20T20:49:01.101Z,8.60
2019-03-20T20:51:30.763Z,4.80
2019-03-20T20:53:58.438Z,7.00
2019-03-20T20:56:26.612Z,9.60
2019-03-20T20:58:54.261Z,10.80
2019-03-20T21:01:23.058Z,22.20
2019-03-20T21:03:51.211Z,12.20
2019-03-20T21:06:18.968Z,12.00
2019-03-20T21:08:46.706Z,8.60
2019-03-20T21:11:15.169Z,9.80
2019-03-20T21:13:42.924Z,10.00
2019-03-20T21:16:10.601Z,12.80
2019-03-20T21:18:43.058Z,12.20
2019-03-20T21:21:14.514Z,9.00
2019-03-20T21:23:42.178Z,10.00
2019-03-20T21:26:10.310Z,12.00
2019-03-20T21:28:38.220Z,5.60
2019-03-20T21:34:39.511Z,9.00
2019-03-20T21:37:15.248Z,7.80
2019-03-20T21:40:01.663Z,5.60
2019-03-20T21:42:31.374Z,9.00
2019-03-20T21:45:17.750Z,7.40
2019-03-20T21:50:38.238Z,12.20
2019-03-20T21:53:24.695Z,18.80
2019-03-20T21:56:11.170Z,8.60
2019-03-20T21:58:39.031Z,4.00
2019-03-20T22:01:27.145Z,7.80
2019-03-20T22:03:54.937Z,6.00
2019-03-20T22:06:22.943Z,8.60
2019-03-20T22:08:50.947Z,7.80
2019-03-20T22:11:18.697Z,12.00
2019-03-20T22:14:05.145Z,6.00
2019-03-20T22:16:33.218Z,6.00
2019-03-20T22:19:21.319Z,7.00
2019-03-20T22:24:41.025Z,6.60
2019-03-20T22:30:00.635Z,7.80
2019-03-20T22:32:47.104Z,7.00
2019-03-20T22:41:25.167Z,8.20
2019-03-20T22:46:46.166Z,9.60
2019-03-20T22:49:32.582Z,7.00
2019-03-20T22:52:19.056Z,9.40
2019-03-20T22:58:04.150Z,9.00
2019-03-20T23:00:39.988Z,7.00
2019-03-20T23:03:26.449Z,5.60
2019-03-20T23:08:59.309Z,10.20
2019-03-20T23:32:51.745Z,6.00
2019-03-20T23:35:20.013Z,10.00
2019-03-20T23:37:47.698Z,9.80
2019-03-20T23:40:15.498Z,9.00
2019-03-20T23:42:43.158Z,9.20
2019-03-20T23:45:11.396Z,9.60
2019-03-20T23:47:39.441Z,9.00
2019-03-20T23:50:07.171Z,6.60
2019-03-20T23:52:35.417Z,9.00
2019-03-20T23:55:03.071Z,9.80
2019-03-20T23:57:30.827Z,9.00
